Nearby METAR Reports

 

KIND - Indianapolis, Indiana, USA
Distance from station: SW 6mi, 9km
Updated: Jan 24 2022 12:54am
Overcast
Overcast
 Wind from SSE
Wind: SSE 8 mph , 13 km/h
Temperature: 21°F , -6°C
Wind Chill: 11°F , -12°C
Dew Point: 10°F , -12°C
Humidity: 63%
Barometer: 29.93 inHg , 1013.5 hPa
Clouds: Overcast
Visibility: 10 miles , 16 km
Cloud details: Partly Cloudy 2300 ft
Overcast 2900 ft
2022/01/24 05:54 KIND 240554Z 15007KT 10SM SCT023 OVC029 M06/M12 A2993 RMK AO2 SLP146 T10561117 11044 21061 58015
KEYE - Indianapolis, Indiana, USA
Distance from station: NW 5mi, 8km
Updated: Jan 24 2022 12:53am
Overcast
Overcast
 Wind from SSE
Wind: SSE 3 mph , 6 km/h
Temperature: 23°F , -5°C
Dew Point: 12°F , -11°C
Humidity: 63%
Barometer: 29.93 inHg , 1013.5 hPa
Clouds: Overcast
Visibility: 10 miles , 16 km
Cloud details: Few Clouds 2000 ft
Overcast 3000 ft
2022/01/24 05:53 KEYE 240553Z AUTO 15003KT 10SM FEW020 OVC030 M05/M11 A2993 RMK AO2 SLP145 T10501106 11039 21061 58014
 
KTYQ - Indianapolis Exc, Indiana, USA
Distance from station: N 17mi, 28km
Updated: Jan 24 2022 12:55am
Overcast
Overcast
 Wind from calm
Wind: Calm
Temperature: 19°F , -7°C
Dew Point: 16°F , -9°C
Humidity: 86%
Barometer: 29.92 inHg , 1013.2 hPa
Clouds: Overcast
Visibility: 10 miles , 16 km
Cloud details: Overcast 2600 ft
2022/01/24 05:55 KTYQ 240555Z AUTO 00000KT 10SM OVC026 M07/M09 A2992 RMK AO2 T10661090 11058 21086
KGEZ - Shelbyville, Indiana, USA
Distance from station: ESE 27mi, 43km
Updated: Jan 24 2022 12:53am
Overcast
Overcast
 Wind from S
Wind: S 5 mph , 7 km/h
Temperature: 21°F , -6°C
Wind Chill: 14°F , -10°C
Dew Point: 12°F , -11°C
Humidity: 68%
Barometer: 29.95 inHg , 1014.2 hPa
Clouds: Overcast
Visibility: 10 miles , 16 km
Cloud details: Overcast 3200 ft
2022/01/24 05:53 KGEZ 240553Z AUTO 19004KT 10SM OVC032 M06/M11 A2995 RMK AO2 SLP149 T10561106 11039 21089 56015
 
KAID - Anderson Municip, Indiana, USA
Distance from station: NE 40mi, 64km
Updated: Jan 24 2022 12:55am
Overcast
Overcast
 Wind from calm
Wind: Calm
Temperature: 14°F , -10°C
Dew Point: 9°F , -13°C
Humidity: 79%
Barometer: 29.93 inHg , 1013.5 hPa
Clouds: Overcast
Visibility: 10 miles , 16 km
Cloud details: Overcast 3300 ft
2022/01/24 05:55 KAID 240555Z AUTO 00000KT 10SM OVC033 M10/M13 A2993 RMK AO2 T10961131 11076 21115 400081115
KBAK - Columbus/Balkala, Indiana, USA
Distance from station: SSE 40mi, 64km
Updated: Jan 23 2022 9:45pm
NOT Current
Clear
Clear
 Wind from NNE
Wind: NNE 3 mph , 6 km/h
Temperature: 19°F , -7°C
Dew Point: 10°F , -12°C
Humidity: 68%
Barometer: 30.01 inHg , 1016.3 hPa
Clouds: Clear
Visibility: 10 miles , 16 km
2022/01/24 02:45 KBAK 240245Z 03003KT 10SM CLR M07/M12 A3001 RMK LAST
 
KBMG - Bloomington, Indiana, USA
Distance from station: SSW 48mi, 78km
Updated: Jan 24 2022 12:53am
Clear
Clear
 Wind from calm
Wind: Calm
Temperature: 19°F , -7°C
Dew Point: 16°F , -9°C
Humidity: 86%
Barometer: 29.94 inHg , 1013.9 hPa
Clouds: Clear
Visibility: 10 miles , 16 km
2022/01/24 05:53 KBMG 240553Z AUTO 00000KT 10SM CLR M07/M09 A2994 RMK AO2 SLP148 T10671094 11022 21072 58015
KOKK - Kokomo, Indiana, USA
Distance from station: N 53mi, 85km
Updated: Jan 24 2022 1:05am
Light snow, Overcast
Light snow, Overcast
 Wind from S
Wind: S 5 mph , 7 km/h
Temperature: 18°F , -8°C
Wind Chill: 11°F , -12°C
Dew Point: 16°F , -9°C
Humidity: 93%
Barometer: 29.92 inHg , 1013.2 hPa
Summary: Light Snow
Clouds: Overcast
Visibility: 8 miles , 13 km
Cloud details: Partly Cloudy 1400 ft
Overcast 2800 ft
2022/01/24 06:05 KOKK 240605Z AUTO 18004KT 8SM -SN SCT014 OVC028 M08/M09 A2992 RMK AO2 FZRANO PNO $